createdAt,value
2022-12-15T00:01:14.123Z,17.20
2022-12-15T00:04:04.175Z,17.20
2022-12-15T00:06:54.003Z,17.30
2022-12-15T00:09:43.776Z,17.30
2022-12-15T00:12:34.972Z,17.40
2022-12-15T00:15:25.745Z,17.60
2022-12-15T00:18:15.456Z,17.60
2022-12-15T00:21:05.449Z,17.60
2022-12-15T00:23:55.284Z,17.80
2022-12-15T00:26:45.058Z,18.00
2022-12-15T00:29:35.081Z,18.10
2022-12-15T00:32:25.644Z,17.90
2022-12-15T00:35:15.298Z,17.90
2022-12-15T00:38:05.044Z,18.00
2022-12-15T00:40:35.587Z,18.10
2022-12-15T00:43:06.009Z,18.30
2022-12-15T00:45:55.691Z,18.50
2022-12-15T00:48:26.109Z,18.60
2022-12-15T00:50:56.685Z,18.50
2022-12-15T00:53:47.352Z,18.40
2022-12-15T00:56:37.075Z,18.70
2022-12-15T00:59:27.190Z,18.80
2022-12-15T01:02:17.774Z,18.90
2022-12-15T01:05:08.801Z,18.90
2022-12-15T01:07:59.855Z,18.90
2022-12-15T01:10:50.200Z,19.10
2022-12-15T01:13:40.205Z,19.00
2022-12-15T01:16:35.051Z,19.10
2022-12-15T01:19:25.416Z,19.30
2022-12-15T01:21:55.775Z,19.60
2022-12-15T01:24:26.078Z,19.80
2022-12-15T01:26:56.868Z,19.90
2022-12-15T01:29:27.475Z,20.00
2022-12-15T01:31:57.849Z,20.00
2022-12-15T01:34:28.613Z,20.10
2022-12-15T01:36:59.138Z,20.40
2022-12-15T01:39:49.424Z,20.70
2022-12-15T01:42:19.906Z,20.90
2022-12-15T01:44:53.740Z,20.70
2022-12-15T01:47:26.998Z,21.10
2022-12-15T01:49:58.579Z,21.50
2022-12-15T01:52:29.042Z,21.10
2022-12-15T01:55:00.749Z,21.10
2022-12-15T01:57:34.524Z,21.20
2022-12-15T02:00:09.884Z,21.40
2022-12-15T02:02:41.637Z,21.60
2022-12-15T02:05:12.871Z,21.70
2022-12-15T02:07:44.847Z,21.60
2022-12-15T02:10:15.672Z,21.70
2022-12-15T02:13:17.888Z,21.90
2022-12-15T02:16:16.459Z,22.20
2022-12-15T02:19:06.581Z,22.30
2022-12-15T02:22:02.235Z,22.10
2022-12-15T02:25:11.346Z,22.60
2022-12-15T02:28:00.817Z,22.70
2022-12-15T02:31:12.863Z,22.90
2022-12-15T02:33:58.441Z,22.70
2022-12-15T02:36:39.260Z,23.00
2022-12-15T02:39:09.896Z,23.10
2022-12-15T02:41:44.388Z,23.10
2022-12-15T02:44:39.244Z,23.30
2022-12-15T02:47:35.921Z,23.30
2022-12-15T02:50:36.627Z,23.80
2022-12-15T02:53:41.042Z,23.80
2022-12-15T02:56:47.515Z,23.90
2022-12-15T02:59:44.067Z,23.70
2022-12-15T03:02:16.047Z,23.90
2022-12-15T03:04:46.999Z,24.10
2022-12-15T03:07:17.514Z,24.10
2022-12-15T03:09:47.703Z,24.40
2022-12-15T03:12:18.632Z,23.90
2022-12-15T03:14:48.953Z,24.20
2022-12-15T03:17:19.804Z,24.30
2022-12-15T03:19:50.427Z,24.30
2022-12-15T03:22:21.652Z,24.80
2022-12-15T03:24:52.393Z,25.00
2022-12-15T03:27:23.431Z,24.90
2022-12-15T03:29:53.858Z,24.90
2022-12-15T03:32:24.354Z,25.20
2022-12-15T03:34:54.876Z,25.30
2022-12-15T03:37:25.725Z,25.40
2022-12-15T03:39:56.436Z,25.60
2022-12-15T03:42:46.538Z,25.50
2022-12-15T03:45:19.739Z,25.40
2022-12-15T03:47:51.216Z,25.40
2022-12-15T03:50:28.327Z,25.50
2022-12-15T03:53:02.749Z,26.00
2022-12-15T03:55:33.581Z,25.80
2022-12-15T03:58:04.519Z,25.90
2022-12-15T04:00:35.679Z,25.90
2022-12-15T04:03:06.349Z,26.20
2022-12-15T04:05:37.967Z,26.30
2022-12-15T04:08:08.682Z,26.60
2022-12-15T04:10:39.404Z,26.70
2022-12-15T04:13:12.384Z,26.70
2022-12-15T04:15:43.756Z,26.50
2022-12-15T04:18:15.552Z,26.80
2022-12-15T04:20:46.239Z,26.80
2022-12-15T04:23:21.092Z,26.80
2022-12-15T04:26:11.637Z,26.70
2022-12-15T04:29:01.960Z,27.00
2022-12-15T04:31:56.269Z,27.10
2022-12-15T04:34:47.000Z,26.80
2022-12-15T04:37:37.297Z,27.00
2022-12-15T04:40:28.369Z,27.20
2022-12-15T04:43:18.492Z,27.10
2022-12-15T04:46:08.938Z,27.10
2022-12-15T04:48:58.989Z,27.30
2022-12-15T04:51:49.089Z,27.60
2022-12-15T04:54:39.346Z,27.30
2022-12-15T04:57:29.378Z,27.80
2022-12-15T05:00:19.719Z,28.00
2022-12-15T05:03:16.555Z,27.60
2022-12-15T05:06:07.939Z,27.60
2022-12-15T05:08:58.267Z,28.30
2022-12-15T05:11:48.245Z,28.60
2022-12-15T05:14:38.214Z,28.30
2022-12-15T05:17:28.856Z,28.30
2022-12-15T05:20:19.088Z,28.70
2022-12-15T05:23:14.530Z,29.00
2022-12-15T05:26:05.534Z,28.70
2022-12-15T05:28:55.885Z,28.80
2022-12-15T05:31:45.932Z,28.30
2022-12-15T05:34:16.895Z,28.30
2022-12-15T05:36:47.575Z,28.30
2022-12-15T05:39:18.446Z,28.60
2022-12-15T05:41:49.183Z,28.70
2022-12-15T05:44:20.299Z,28.70
2022-12-15T05:46:51.506Z,29.20
2022-12-15T05:49:22.519Z,29.50
2022-12-15T05:51:53.144Z,29.40
2022-12-15T05:54:23.857Z,29.60
2022-12-15T05:56:54.288Z,29.60
2022-12-15T05:59:25.005Z,29.50
2022-12-15T06:01:55.749Z,29.80
2022-12-15T06:04:26.586Z,29.70
2022-12-15T06:06:57.133Z,29.40
2022-12-15T06:09:27.289Z,29.80
2022-12-15T06:11:58.080Z,30.00
2022-12-15T06:14:28.584Z,29.70
2022-12-15T06:16:59.416Z,29.60
2022-12-15T06:19:30.476Z,30.00
2022-12-15T06:22:01.037Z,30.00
2022-12-15T06:24:31.765Z,29.70
2022-12-15T06:27:02.930Z,29.90
2022-12-15T06:29:33.422Z,29.90
2022-12-15T06:32:05.558Z,30.10
2022-12-15T06:34:36.320Z,29.90
2022-12-15T06:37:07.159Z,30.00
2022-12-15T06:39:37.929Z,30.00
2022-12-15T06:42:08.760Z,29.40
2022-12-15T06:44:38.827Z,29.30
2022-12-15T06:47:09.044Z,30.00
2022-12-15T06:49:39.968Z,30.00
2022-12-15T06:52:11.037Z,30.00
2022-12-15T06:54:41.237Z,29.30
2022-12-15T06:57:12.371Z,30.10
2022-12-15T06:59:43.133Z,30.20
2022-12-15T07:02:23.700Z,30.70
2022-12-15T07:04:57.137Z,30.60
2022-12-15T07:07:29.164Z,30.40
2022-12-15T07:09:59.649Z,30.80
2022-12-15T07:12:31.919Z,30.90
2022-12-15T07:15:02.771Z,30.70
2022-12-15T07:17:33.298Z,30.60
2022-12-15T07:20:04.200Z,30.70
2022-12-15T07:22:35.297Z,30.70
2022-12-15T07:25:06.508Z,30.80
2022-12-15T07:27:37.136Z,31.00
2022-12-15T07:30:09.206Z,31.00
2022-12-15T07:32:39.843Z,31.00
2022-12-15T07:35:11.438Z,31.20
2022-12-15T07:37:43.113Z,31.30
2022-12-15T07:40:15.282Z,31.20
2022-12-15T07:42:46.320Z,31.20
2022-12-15T07:45:16.825Z,31.10
2022-12-15T07:47:47.242Z,31.10
2022-12-15T07:50:17.796Z,31.30
2022-12-15T07:52:49.236Z,31.40
2022-12-15T07:55:37.313Z,31.30
2022-12-15T07:58:11.344Z,31.20
2022-12-15T08:00:46.840Z,30.90
2022-12-15T08:03:19.316Z,30.50
2022-12-15T08:05:50.201Z,30.30
2022-12-15T08:08:20.853Z,30.50
2022-12-15T08:10:51.360Z,30.80
2022-12-15T08:13:52.941Z,31.10
2022-12-15T08:16:13.890Z,30.70
2022-12-15T08:18:44.668Z,30.70
2022-12-15T08:21:16.553Z,30.90
2022-12-15T08:23:47.007Z,30.90
2022-12-15T08:26:22.668Z,30.80
2022-12-15T08:29:07.208Z,30.70
2022-12-15T08:31:47.768Z,30.70
2022-12-15T08:34:18.299Z,30.90
2022-12-15T08:36:49.632Z,30.60
2022-12-15T08:39:20.539Z,30.70
2022-12-15T08:41:51.244Z,30.40
2022-12-15T08:44:21.714Z,30.50
2022-12-15T08:46:52.837Z,30.70
2022-12-15T08:49:23.534Z,30.50
2022-12-15T08:51:54.431Z,30.30
2022-12-15T08:54:25.172Z,30.50
2022-12-15T08:56:56.226Z,30.40
2022-12-15T08:59:27.108Z,30.30
2022-12-15T09:01:58.106Z,30.40
2022-12-15T09:04:28.811Z,30.30
2022-12-15T09:06:59.120Z,30.40
2022-12-15T09:09:29.656Z,30.00
2022-12-15T09:11:59.723Z,29.60
2022-12-15T09:14:31.173Z,29.90
2022-12-15T09:17:01.912Z,29.80
2022-12-15T09:19:32.224Z,29.80
2022-12-15T09:22:03.490Z,30.00
2022-12-15T09:24:35.436Z,29.90
2022-12-15T09:27:06.332Z,30.00
2022-12-15T09:29:36.633Z,29.90
2022-12-15T09:32:13.643Z,29.70
2022-12-15T09:34:44.340Z,29.50
2022-12-15T09:37:15.213Z,29.60
2022-12-15T09:39:45.336Z,29.50
2022-12-15T09:42:35.271Z,29.70
2022-12-15T09:45:21.207Z,29.60
2022-12-15T09:48:00.718Z,29.50
2022-12-15T09:50:40.494Z,29.40
2022-12-15T09:53:45.432Z,29.20
2022-12-15T09:56:15.323Z,29.20
2022-12-15T09:59:05.645Z,29.10
2022-12-15T10:01:56.797Z,29.10
2022-12-15T10:04:59.091Z,29.00
2022-12-15T10:07:43.501Z,28.90
2022-12-15T10:10:45.049Z,28.70
2022-12-15T10:13:26.829Z,28.50
2022-12-15T10:16:07.365Z,28.40
2022-12-15T10:18:50.397Z,28.20
2022-12-15T10:21:20.919Z,28.20
2022-12-15T10:23:53.302Z,28.40
2022-12-15T10:26:27.919Z,28.40
2022-12-15T10:29:37.154Z,28.40
2022-12-15T10:32:19.995Z,28.40
2022-12-15T10:34:50.813Z,28.40
2022-12-15T10:37:23.053Z,28.30
2022-12-15T10:39:53.956Z,28.20
2022-12-15T10:42:27.023Z,28.10
2022-12-15T10:45:01.445Z,28.00
2022-12-15T10:47:33.929Z,28.00
2022-12-15T10:50:25.516Z,27.90
2022-12-15T10:52:55.929Z,27.80
2022-12-15T10:55:49.968Z,27.60
2022-12-15T10:58:24.148Z,27.60
2022-12-15T11:01:18.711Z,27.50
2022-12-15T11:03:53.576Z,27.30
2022-12-15T11:06:27.920Z,27.20
2022-12-15T11:09:28.525Z,27.10
2022-12-15T11:12:18.438Z,26.90
2022-12-15T11:14:51.500Z,26.90
2022-12-15T11:17:24.479Z,26.80
2022-12-15T11:20:03.488Z,26.70
2022-12-15T11:22:58.056Z,26.70
2022-12-15T11:25:44.348Z,26.70
2022-12-15T11:28:25.147Z,26.70
2022-12-15T11:31:07.798Z,26.70
2022-12-15T11:33:37.845Z,26.20
2022-12-15T11:36:47.385Z,25.70
2022-12-15T11:39:44.631Z,25.80
2022-12-15T11:42:26.887Z,25.80
2022-12-15T11:45:36.074Z,25.40
2022-12-15T11:48:30.010Z,25.50
2022-12-15T11:51:19.224Z,25.20
2022-12-15T11:54:28.703Z,25.20
2022-12-15T11:57:22.384Z,24.90
2022-12-15T12:00:14.120Z,24.90
2022-12-15T12:03:18.310Z,25.00
2022-12-15T12:06:13.831Z,24.90
2022-12-15T12:09:21.662Z,25.00
2022-12-15T12:12:30.841Z,25.00
2022-12-15T12:15:26.461Z,24.90
2022-12-15T12:18:07.278Z,25.20
2022-12-15T12:20:50.532Z,25.30
2022-12-15T12:24:00.451Z,25.30
2022-12-15T12:26:58.781Z,25.30
2022-12-15T12:29:37.465Z,25.10
2022-12-15T12:32:18.202Z,24.80
2022-12-15T12:35:30.691Z,24.80
2022-12-15T12:38:04.867Z,24.80
2022-12-15T12:41:11.125Z,24.80
2022-12-15T12:44:05.842Z,24.70
2022-12-15T12:46:44.988Z,24.80
2022-12-15T12:49:37.716Z,24.70
2022-12-15T12:52:18.736Z,24.20
2022-12-15T12:55:28.021Z,24.10
2022-12-15T12:57:58.940Z,24.30
2022-12-15T13:00:31.748Z,24.10
2022-12-15T13:03:23.279Z,24.20
2022-12-15T13:05:55.967Z,24.10
2022-12-15T13:08:51.662Z,24.20
2022-12-15T13:12:20.598Z,24.20
2022-12-15T13:14:56.847Z,24.20
2022-12-15T13:17:32.346Z,24.30
2022-12-15T13:20:25.549Z,24.30
2022-12-15T13:22:57.924Z,24.00
2022-12-15T13:25:37.264Z,23.80
2022-12-15T13:28:46.925Z,23.20
2022-12-15T13:31:32.816Z,23.10
2022-12-15T13:34:16.221Z,23.00
2022-12-15T13:36:54.773Z,23.10
2022-12-15T13:39:57.707Z,23.60
2022-12-15T13:42:34.988Z,23.70
2022-12-15T13:45:17.567Z,23.80
2022-12-15T13:47:57.063Z,23.90
2022-12-15T13:51:07.137Z,23.80
2022-12-15T13:53:45.272Z,23.60
2022-12-15T13:57:01.354Z,23.60
2022-12-15T13:59:59.736Z,23.70
2022-12-15T14:02:39.666Z,23.60
2022-12-15T14:05:24.004Z,23.70
2022-12-15T14:08:05.868Z,23.70
2022-12-15T14:10:53.716Z,23.60
2022-12-15T14:13:33.579Z,23.50
2022-12-15T14:16:26.360Z,23.40
2022-12-15T14:19:17.921Z,23.10
2022-12-15T14:22:01.019Z,23.10
2022-12-15T14:24:45.774Z,22.50
2022-12-15T14:27:32.184Z,22.40
2022-12-15T14:30:23.880Z,22.50
2022-12-15T14:33:01.956Z,22.80
2022-12-15T14:38:48.544Z,23.00
2022-12-15T14:41:28.985Z,22.80
2022-12-15T14:44:36.529Z,22.80
2022-12-15T14:46:55.016Z,22.80
2022-12-15T14:49:32.852Z,22.90
2022-12-15T14:52:06.609Z,22.90
2022-12-15T14:54:41.510Z,22.90
2022-12-15T14:57:18.845Z,22.90
2022-12-15T14:59:52.833Z,22.90
2022-12-15T15:02:32.459Z,22.90
2022-12-15T15:03:09.716Z,23.00
2022-12-15T15:05:06.169Z,22.80
2022-12-15T15:07:40.137Z,22.70
2022-12-15T15:10:26.419Z,22.70
2022-12-15T15:12:57.968Z,22.30
2022-12-15T15:15:29.489Z,22.00
2022-12-15T15:18:01.612Z,21.80
2022-12-15T15:20:37.579Z,21.90
2022-12-15T15:23:19.369Z,22.20
2022-12-15T15:26:10.479Z,22.40
2022-12-15T15:28:43.670Z,22.40
2022-12-15T15:31:41.496Z,22.50
2022-12-15T15:34:12.837Z,22.50
2022-12-15T15:36:43.042Z,22.50
2022-12-15T15:39:18.084Z,22.40
2022-12-15T15:41:49.083Z,22.30
2022-12-15T15:44:19.432Z,21.70
2022-12-15T15:46:54.508Z,21.40
2022-12-15T15:49:26.068Z,21.60
2022-12-15T15:51:58.582Z,21.80
2022-12-15T15:54:37.190Z,21.90
2022-12-15T15:57:07.960Z,21.90
2022-12-15T15:59:41.291Z,21.90
2022-12-15T16:02:14.891Z,22.00
2022-12-15T16:04:46.324Z,22.10
2022-12-15T16:07:27.282Z,22.00
2022-12-15T16:09:57.959Z,21.90
2022-12-15T16:12:44.358Z,21.80
2022-12-15T16:15:27.493Z,21.60
2022-12-15T16:17:58.423Z,21.40
2022-12-15T16:20:31.443Z,21.30
2022-12-15T16:23:05.182Z,21.30
2022-12-15T16:25:51.031Z,21.30
2022-12-15T16:28:28.485Z,21.20
2022-12-15T16:31:00.503Z,21.30
2022-12-15T16:33:30.776Z,21.30
2022-12-15T16:36:01.027Z,21.20
2022-12-15T16:38:34.190Z,21.20
2022-12-15T16:41:09.206Z,21.20
2022-12-15T16:43:42.990Z,21.40
2022-12-15T16:46:18.199Z,21.40
2022-12-15T16:48:49.101Z,21.30
2022-12-15T16:51:43.873Z,20.70
2022-12-15T16:54:22.387Z,20.60
2022-12-15T16:56:54.794Z,20.90
2022-12-15T16:59:33.396Z,21.10
2022-12-15T17:02:25.104Z,21.10
2022-12-15T17:04:58.891Z,21.00
2022-12-15T17:07:30.908Z,21.10
2022-12-15T17:10:01.840Z,21.00
2022-12-15T17:12:32.369Z,21.10
2022-12-15T17:15:03.994Z,21.00
2022-12-15T17:17:34.512Z,20.60
2022-12-15T17:20:28.403Z,20.60
2022-12-15T17:23:00.638Z,20.20
2022-12-15T17:28:34.788Z,20.00
2022-12-15T17:31:05.634Z,20.00
2022-12-15T17:33:37.447Z,20.10
2022-12-15T17:36:18.115Z,20.00
2022-12-15T17:38:49.498Z,20.00
2022-12-15T17:41:42.780Z,20.50
2022-12-15T17:44:32.993Z,20.60
2022-12-15T17:47:05.778Z,20.70
2022-12-15T17:49:38.625Z,20.80
2022-12-15T17:52:24.276Z,20.60
2022-12-15T17:54:55.196Z,20.40
2022-12-15T17:57:28.268Z,20.00
2022-12-15T17:59:59.168Z,20.30
2022-12-15T18:02:29.995Z,20.50
2022-12-15T18:05:01.134Z,20.30
2022-12-15T18:07:31.560Z,20.10
2022-12-15T18:10:02.513Z,20.10
2022-12-15T18:12:32.985Z,20.10
2022-12-15T18:15:03.777Z,20.00
2022-12-15T18:17:34.182Z,19.90
2022-12-15T18:20:06.212Z,19.60
2022-12-15T18:22:36.212Z,19.90
2022-12-15T18:25:09.352Z,19.90
2022-12-15T18:27:41.871Z,19.80
2022-12-15T18:30:20.462Z,19.80
2022-12-15T18:32:52.457Z,19.70
2022-12-15T18:35:35.871Z,20.00
2022-12-15T18:38:21.636Z,20.00
2022-12-15T18:40:57.340Z,20.00
2022-12-15T18:43:32.380Z,19.90
2022-12-15T18:46:03.713Z,20.00
2022-12-15T18:48:36.565Z,20.00
2022-12-15T18:51:18.404Z,20.10
2022-12-15T18:53:50.300Z,20.20
2022-12-15T18:56:23.092Z,20.10
2022-12-15T18:58:53.192Z,20.00
2022-12-15T19:01:24.124Z,20.00
2022-12-15T19:03:54.412Z,20.00
2022-12-15T19:06:41.401Z,20.00
2022-12-15T19:09:29.530Z,20.00
2022-12-15T19:12:19.118Z,20.00
2022-12-15T19:14:52.523Z,20.10
2022-12-15T19:17:45.672Z,20.20
2022-12-15T19:20:42.732Z,20.20
2022-12-15T19:23:15.149Z,20.10
2022-12-15T19:25:47.893Z,20.00
2022-12-15T19:28:21.139Z,20.10
2022-12-15T19:30:51.900Z,20.00
2022-12-15T19:33:22.686Z,20.00
2022-12-15T19:35:56.380Z,20.00
2022-12-15T19:38:29.994Z,19.90
2022-12-15T19:41:01.530Z,19.90
2022-12-15T19:43:32.570Z,19.80
2022-12-15T19:46:03.309Z,19.90
2022-12-15T19:48:33.422Z,19.90
2022-12-15T19:51:03.688Z,19.80
2022-12-15T19:53:34.257Z,19.60
2022-12-15T19:56:05.764Z,19.70
2022-12-15T19:58:41.150Z,19.80
2022-12-15T20:01:16.106Z,19.60
2022-12-15T20:03:48.946Z,19.30
2022-12-15T20:06:26.136Z,19.30
2022-12-15T20:08:57.873Z,19.40
2022-12-15T20:11:31.898Z,19.20
2022-12-15T20:14:03.568Z,19.30
2022-12-15T20:16:34.031Z,19.30
2022-12-15T20:19:04.796Z,19.40
2022-12-15T20:21:38.731Z,19.30
2022-12-15T20:24:18.510Z,19.10
2022-12-15T20:26:48.696Z,19.00
2022-12-15T20:29:30.038Z,19.10
2022-12-15T20:32:01.184Z,19.40
2022-12-15T20:34:31.171Z,19.50
2022-12-15T20:37:01.073Z,19.50
2022-12-15T20:39:32.325Z,19.40
2022-12-15T20:42:03.750Z,19.10
2022-12-15T20:44:34.081Z,19.00
2022-12-15T20:47:04.413Z,19.10
2022-12-15T20:49:34.486Z,19.40
2022-12-15T20:52:05.316Z,19.40
2022-12-15T20:54:35.371Z,19.40
2022-12-15T20:57:05.831Z,19.40
2022-12-15T20:59:36.247Z,19.30
2022-12-15T21:02:22.204Z,19.10
2022-12-15T21:04:53.588Z,19.20
2022-12-15T21:07:23.682Z,19.30
2022-12-15T21:09:53.887Z,19.30
2022-12-15T21:12:28.852Z,19.40
2022-12-15T21:14:59.801Z,19.40
2022-12-15T21:17:31.322Z,19.30
2022-12-15T21:20:02.764Z,19.30
2022-12-15T21:22:33.497Z,19.20
2022-12-15T21:25:04.015Z,19.20
2022-12-15T21:27:34.364Z,19.20
2022-12-15T21:30:04.471Z,19.20
2022-12-15T21:32:34.880Z,19.00
2022-12-15T21:35:05.050Z,18.70
2022-12-15T21:37:35.599Z,18.60
2022-12-15T21:40:08.092Z,18.50
2022-12-15T21:42:40.030Z,18.80
2022-12-15T21:45:24.887Z,18.90
2022-12-15T21:48:15.426Z,18.90
2022-12-15T21:50:49.442Z,19.10
2022-12-15T21:53:19.580Z,19.00
2022-12-15T21:55:50.102Z,18.80
2022-12-15T21:58:23.666Z,18.70
2022-12-15T22:00:55.738Z,18.60
2022-12-15T22:03:26.550Z,18.60
2022-12-15T22:05:57.273Z,18.60
2022-12-15T22:08:27.650Z,18.50
2022-12-15T22:10:57.674Z,18.40
2022-12-15T22:13:27.728Z,18.30
2022-12-15T22:15:58.118Z,18.50
2022-12-15T22:18:28.790Z,18.60
2022-12-15T22:20:59.166Z,18.50
2022-12-15T22:23:29.703Z,18.60
2022-12-15T22:25:59.933Z,18.60
2022-12-15T22:28:31.350Z,18.70
2022-12-15T22:31:05.371Z,18.40
2022-12-15T22:33:35.813Z,18.50
2022-12-15T22:36:06.473Z,18.40
2022-12-15T22:38:36.468Z,18.40
2022-12-15T22:41:08.265Z,18.50
2022-12-15T22:43:41.846Z,18.50
2022-12-15T22:46:15.163Z,18.60
2022-12-15T22:48:49.067Z,18.70
2022-12-15T22:51:20.684Z,18.60
2022-12-15T22:53:51.753Z,18.60
2022-12-15T22:56:35.929Z,18.50
2022-12-15T22:59:11.944Z,18.60
2022-12-15T23:01:42.516Z,18.60
2022-12-15T23:04:13.181Z,18.60
2022-12-15T23:06:43.605Z,18.60
2022-12-15T23:09:13.727Z,18.40
2022-12-15T23:11:45.477Z,18.50
2022-12-15T23:14:17.753Z,18.30
2022-12-15T23:16:48.910Z,18.30
2022-12-15T23:19:25.183Z,18.30
2022-12-15T23:21:55.369Z,18.30
2022-12-15T23:24:25.530Z,18.30
2022-12-15T23:26:55.776Z,18.40
2022-12-15T23:29:26.310Z,18.40
2022-12-15T23:31:57.507Z,18.30
2022-12-15T23:34:28.122Z,18.20
2022-12-15T23:36:58.163Z,18.20
2022-12-15T23:39:28.603Z,18.10
2022-12-15T23:41:58.849Z,18.10
2022-12-15T23:44:29.224Z,18.10
2022-12-15T23:47:00.068Z,18.00
2022-12-15T23:49:31.064Z,18.00
2022-12-15T23:52:01.103Z,18.10
2022-12-15T23:54:31.504Z,18.00
2022-12-15T23:57:02.494Z,18.10
2022-12-15T23:59:32.586Z,18.20
